Time;durP1;ratioP1;P1;durP2;ratioP2;P2;SDS_P1;SDS_P2;PMS_P1;PMS_P2;Temp;Humidity;BMP_temperature;BMP_pressure;BME280_temperature;BME280_humidity;BME280_pressure;Samples;Min_cycle;Max_cycle;Signal;HPM_P1;HPM_P2
2022/04/27 00:00:40;;;;;;;9.10;5.65;;;;;;;7.83;100.00;101189.94;5207293;28;20040;-77
2022/04/27 00:03:10;;;;;;;7.30;5.15;;;;;;;8.08;100.00;101186.94;5204821;28;20110;-77
2022/04/27 00:05:40;;;;;;;7.43;4.72;;;;;;;8.09;100.00;101188.69;5210604;28;20131;-77
2022/04/27 00:08:11;;;;;;;6.10;4.47;;;;;;;8.05;100.00;101200.00;5212206;28;20029;-77
2022/04/27 00:10:41;;;;;;;8.48;4.93;;;;;;;7.89;100.00;101195.06;5208229;28;20034;-77
2022/04/27 00:13:16;;;;;;;7.07;4.78;;;;;;;7.83;100.00;101200.34;5211311;28;20056;-77
2022/04/27 00:15:46;;;;;;;13.05;5.20;;;;;;;7.66;100.00;101211.00;5212207;28;20021;-77
2022/04/27 00:18:16;;;;;;;9.63;5.40;;;;;;;7.69;100.00;101203.16;5210326;28;20048;-77
2022/04/27 00:20:46;;;;;;;8.48;6.07;;;;;;;7.81;100.00;101208.19;5211527;28;20037;-77
2022/04/27 00:23:17;;;;;;;11.38;6.10;;;;;;;8.13;100.00;101205.09;5211073;28;20029;-77
2022/04/27 00:25:47;;;;;;;11.85;6.22;;;;;;;8.43;100.00;101204.63;5216857;28;20033;-77
2022/04/27 00:28:17;;;;;;;9.32;6.32;;;;;;;8.54;100.00;101208.78;5214104;28;20116;-77
2022/04/27 00:30:47;;;;;;;10.80;6.18;;;;;;;8.42;100.00;101202.94;5209336;28;20383;-77
2022/04/27 00:33:18;;;;;;;8.30;4.78;;;;;;;8.00;100.00;101207.03;5207055;28;20057;-77
2022/04/27 00:35:48;;;;;;;9.13;5.25;;;;;;;7.75;100.00;101204.81;5213920;28;20030;-77
2022/04/27 00:38:19;;;;;;;8.55;5.13;;;;;;;7.46;100.00;101204.34;5215193;28;20017;-77
2022/04/27 00:40:49;;;;;;;9.27;5.40;;;;;;;7.56;100.00;101209.38;5206091;28;20056;-78
2022/04/27 00:43:40;;;;;;;10.57;5.93;;;;;;;7.75;100.00;101213.50;5199357;28;20022;-77
2022/04/27 00:46:11;;;;;;;8.98;5.05;;;;;;;7.83;100.00;101206.41;5209893;28;20197;-77
2022/04/27 00:48:41;;;;;;;8.75;5.35;;;;;;;7.98;100.00;101218.34;5214818;28;20036;-77
2022/04/27 00:51:16;;;;;;;8.68;5.00;;;;;;;8.06;100.00;101225.16;5214341;28;20109;-77
2022/04/27 00:53:48;;;;;;;8.10;4.65;;;;;;;7.89;100.00;101216.72;5208530;28;20296;-77
2022/04/27 00:56:21;;;;;;;8.95;5.03;;;;;;;7.83;100.00;101215.97;5209904;28;20479;-77
2022/04/27 00:58:51;;;;;;;9.93;4.85;;;;;;;7.88;100.00;101212.41;5215854;28;20033;-77
2022/04/27 01:01:21;;;;;;;8.35;5.05;;;;;;;7.98;100.00;101221.81;5212060;28;20407;-77
2022/04/27 01:03:52;;;;;;;8.95;4.93;;;;;;;7.97;100.00;101216.63;5215396;28;20025;-77
2022/04/27 01:06:22;;;;;;;8.15;4.60;;;;;;;8.12;100.00;101225.09;5212537;28;20025;-77
2022/04/27 01:08:53;;;;;;;11.32;4.57;;;;;;;7.56;100.00;101222.41;5212694;28;20078;-77
2022/04/27 01:11:23;;;;;;;6.82;4.68;;;;;;;7.26;100.00;101223.69;5212075;28;20029;-77
2022/04/27 01:13:54;;;;;;;8.82;5.15;;;;;;;7.23;100.00;101221.97;5216009;28;20106;-77
2022/04/27 01:16:25;;;;;;;9.15;4.88;;;;;;;7.48;100.00;101232.06;5212494;28;20289;-77
2022/04/27 01:18:56;;;;;;;6.72;4.68;;;;;;;7.37;100.00;101228.72;5216560;28;20064;-77
2022/04/27 01:21:26;;;;;;;8.57;5.13;;;;;;;7.20;100.00;101232.41;5211663;28;20061;-77
2022/04/27 01:23:56;;;;;;;10.32;5.55;;;;;;;7.28;100.00;101236.66;5206705;28;20028;-77
2022/04/27 01:26:27;;;;;;;7.70;4.40;;;;;;;7.04;100.00;101235.19;5215048;28;20370;-77
2022/04/27 01:28:58;;;;;;;9.23;5.03;;;;;;;7.07;100.00;101246.41;5212143;28;20028;-77
2022/04/27 01:31:29;;;;;;;8.05;4.50;;;;;;;7.29;100.00;101243.56;5208337;28;20028;-77
2022/04/27 01:33:59;;;;;;;8.82;4.72;;;;;;;7.18;100.00;101246.28;5209893;28;20163;-77
2022/04/27 01:36:29;;;;;;;7.68;4.55;;;;;;;7.08;100.00;101250.72;5207198;28;20501;-77
2022/04/27 01:39:00;;;;;;;8.55;4.22;;;;;;;6.96;100.00;101248.25;5207944;28;20084;-77
2022/04/27 01:41:30;;;;;;;7.78;4.72;;;;;;;6.92;100.00;101256.97;5210539;28;20037;-77
2022/04/27 01:44:00;;;;;;;9.60;4.47;;;;;;;6.93;100.00;101263.03;5214725;28;20029;-77
2022/04/27 01:46:31;;;;;;;8.52;4.32;;;;;;;7.02;100.00;101268.13;5211693;28;20159;-77
2022/04/27 01:49:01;;;;;;;9.23;4.68;;;;;;;6.88;100.00;101264.78;5214370;28;20037;-78
2022/04/27 01:54:20;;;;;;;10.68;4.75;;;;;;;7.01;100.00;101264.69;5205871;28;20036;-77
2022/04/27 01:56:52;;;;;;;8.93;4.65;;;;;;;7.16;100.00;101268.84;5214403;28;20558;-77
2022/04/27 01:59:22;;;;;;;8.23;4.30;;;;;;;7.19;100.00;101267.06;5211635;28;20536;-77
2022/04/27 02:01:53;;;;;;;10.65;4.35;;;;;;;7.00;100.00;101262.09;5214362;28;20025;-77
2022/04/27 02:04:23;;;;;;;9.20;4.20;;;;;;;6.88;100.00;101259.59;5211649;28;20079;-77
2022/04/27 02:06:53;;;;;;;6.75;4.25;;;;;;;6.82;100.00;101264.84;5211602;28;20362;-77
2022/04/27 02:09:23;;;;;;;5.97;4.18;;;;;;;6.70;100.00;101276.22;5206151;28;20042;-77
2022/04/27 02:11:54;;;;;;;7.47;4.50;;;;;;;6.62;100.00;101283.22;5212780;28;20386;-77
2022/04/27 02:14:25;;;;;;;9.63;4.53;;;;;;;6.56;100.00;101285.88;5210929;28;20034;-77
2022/04/27 02:16:55;;;;;;;8.80;4.78;;;;;;;6.64;100.00;101291.88;5214437;28;20024;-77
2022/04/27 02:19:25;;;;;;;10.23;5.32;;;;;;;6.56;100.00;101295.41;5210681;28;20434;-77
2022/04/27 02:21:57;;;;;;;10.73;4.93;;;;;;;6.72;100.00;101304.75;5214271;28;20033;-77
2022/04/27 02:24:28;;;;;;;9.10;4.68;;;;;;;6.86;100.00;101293.41;5206720;28;20029;-77
2022/04/27 02:26:58;;;;;;;10.80;4.68;;;;;;;6.99;100.00;101296.75;5209713;28;20082;-77
2022/04/27 02:29:28;;;;;;;7.70;4.68;;;;;;;7.25;100.00;101307.75;5204913;28;20048;-77
2022/04/27 02:31:59;;;;;;;8.40;4.35;;;;;;;7.28;100.00;101314.63;5210423;28;20071;-77
2022/04/27 02:34:29;;;;;;;8.07;4.68;;;;;;;7.32;100.00;101316.31;5212731;28;20584;-77
2022/04/27 02:37:00;;;;;;;10.68;4.60;;;;;;;7.26;100.00;101317.28;5210749;28;20645;-77
2022/04/27 02:39:30;;;;;;;8.07;4.43;;;;;;;7.10;100.00;101313.94;5211609;28;20407;-77
2022/04/27 02:42:00;;;;;;;9.38;4.68;;;;;;;7.08;100.00;101322.66;5211886;28;20501;-77
2022/04/27 02:44:30;;;;;;;11.27;4.95;;;;;;;6.93;100.00;101315.84;5210868;28;20025;-77
2022/04/27 02:47:01;;;;;;;8.95;4.50;;;;;;;6.66;100.00;101323.00;5212744;28;20033;-77
2022/04/27 02:52:20;;;;;;;9.10;4.10;;;;;;;5.94;100.00;101344.25;5210827;28;20558;-77
2022/04/27 02:54:51;;;;;;;8.50;4.60;;;;;;;5.81;100.00;101337.38;5213051;28;20036;-77
2022/04/27 02:57:21;;;;;;;9.60;4.55;;;;;;;6.12;100.00;101338.94;5206459;28;20601;-77
2022/04/27 02:59:51;;;;;;;8.40;4.70;;;;;;;6.30;100.00;101336.25;5200741;28;20064;-77
2022/04/27 03:02:22;;;;;;;7.70;4.18;;;;;;;6.40;100.00;101330.97;5204433;28;20621;-77
2022/04/27 03:04:52;;;;;;;6.88;4.25;;;;;;;6.46;100.00;101324.91;5209835;28;20021;-77
2022/04/27 03:07:22;;;;;;;10.55;4.25;;;;;;;6.49;100.00;101319.66;5213151;28;20032;-77
2022/04/27 03:09:52;;;;;;;7.85;3.97;;;;;;;6.46;100.00;101328.34;5208965;28;20028;-77
2022/04/27 03:12:23;;;;;;;8.18;4.30;;;;;;;6.25;100.00;101335.44;5210373;28;20021;-77
2022/04/27 03:14:53;;;;;;;6.13;3.80;;;;;;;6.19;100.00;101333.72;5213327;28;20497;-77
2022/04/27 03:17:24;;;;;;;6.75;3.78;;;;;;;6.09;100.00;101336.38;5209913;28;20037;-77
2022/04/27 03:19:54;;;;;;;6.72;4.00;;;;;;;6.08;100.00;101340.69;5213025;28;20029;-77
2022/04/27 03:22:24;;;;;;;7.22;3.70;;;;;;;6.10;100.00;101344.13;5209554;28;20049;-77
2022/04/27 03:24:54;;;;;;;7.30;3.63;;;;;;;5.94;100.00;101344.25;5213481;28;20565;-77
2022/04/27 03:27:25;;;;;;;6.93;3.90;;;;;;;5.71;100.00;101343.44;5209536;28;20029;-77
2022/04/27 03:29:55;;;;;;;6.63;4.20;;;;;;;5.72;100.00;101346.00;5210070;28;20072;-77
2022/04/27 03:32:26;;;;;;;9.32;3.78;;;;;;;5.71;100.00;101353.81;5200521;28;20477;-77
2022/04/27 03:34:56;;;;;;;7.78;4.63;;;;;;;5.70;100.00;101344.28;5201031;28;20029;-77
2022/04/27 03:37:27;;;;;;;9.48;4.28;;;;;;;5.70;100.00;101352.94;5206939;28;20039;-77
2022/04/27 03:39:57;;;;;;;6.43;3.78;;;;;;;5.91;100.00;101358.06;5208197;28;20579;-77
2022/04/27 03:42:27;;;;;;;11.75;4.10;;;;;;;5.95;100.00;101354.59;5210114;28;20037;-77
2022/04/27 03:44:57;;;;;;;10.10;4.20;;;;;;;5.85;100.00;101357.22;5212790;28;20056;-77
2022/04/27 03:47:28;;;;;;;7.25;4.25;;;;;;;5.89;100.00;101366.75;5209049;28;20028;-77
2022/04/27 03:50:04;;;;;;;8.43;4.30;;;;;;;5.85;100.00;101362.41;5213441;28;20489;-78
2022/04/27 03:52:34;;;;;;;7.50;4.60;;;;;;;5.77;100.00;101377.97;5210120;28;20228;-77
2022/04/27 03:55:04;;;;;;;9.75;4.55;;;;;;;5.52;100.00;101383.22;5210952;28;20686;-77
2022/04/27 03:57:35;;;;;;;6.97;4.38;;;;;;;5.72;100.00;101387.50;5203502;28;20718;-77
2022/04/27 04:00:07;;;;;;;9.48;5.10;;;;;;;5.99;100.00;101392.63;5210912;28;20036;-77
2022/04/27 04:02:38;;;;;;;9.77;5.35;;;;;;;6.13;100.00;101392.56;5210459;28;20033;-77
2022/04/27 04:05:08;;;;;;;9.15;4.85;;;;;;;5.96;100.00;101399.56;5210361;28;20086;-77
2022/04/27 04:07:39;;;;;;;8.40;4.93;;;;;;;6.02;100.00;101402.13;5207078;28;20029;-77
2022/04/27 04:10:09;;;;;;;9.85;5.70;;;;;;;6.09;100.00;101399.50;5203308;28;20021;-77
2022/04/27 04:12:39;;;;;;;10.30;5.75;;;;;;;6.25;100.00;101406.34;5199952;28;20022;-77
2022/04/27 04:15:10;;;;;;;11.15;5.93;;;;;;;6.21;100.00;101408.94;5198669;28;20053;-77
2022/04/27 04:17:44;;;;;;;10.07;5.80;;;;;;;6.21;100.00;101408.94;5204783;28;20037;-77
2022/04/27 04:20:19;;;;;;;12.90;5.95;;;;;;;6.11;100.00;101415.06;5209000;28;20487;-77
2022/04/27 04:22:49;;;;;;;12.50;6.87;;;;;;;6.06;100.00;101414.25;5206785;28;20663;-77
2022/04/27 04:30:59;;;;;;;9.90;6.05;;;;;;;6.25;100.00;101423.66;5208549;28;20087;-77
2022/04/27 04:33:30;;;;;;;15.77;6.53;;;;;;;6.23;100.00;101430.59;5213129;28;20035;-77
2022/04/27 04:36:00;;;;;;;12.13;6.85;;;;;;;6.30;100.00;101430.56;5207167;28;20026;-77
2022/04/27 04:38:30;;;;;;;11.02;6.85;;;;;;;6.65;100.00;101432.97;5211205;28;20513;-77
2022/04/27 04:41:01;;;;;;;12.10;7.05;;;;;;;6.91;100.00;101431.91;5208964;28;20037;-77
2022/04/27 04:43:32;;;;;;;10.00;6.32;;;;;;;6.82;100.00;101439.78;5210544;28;20033;-77
2022/04/27 04:46:02;;;;;;;10.75;6.20;;;;;;;7.16;100.00;101441.28;5213269;28;20549;-77
2022/04/27 04:48:32;;;;;;;10.23;5.85;;;;;;;7.42;100.00;101445.38;5210171;28;20033;-77
2022/04/27 04:51:03;;;;;;;12.95;5.82;;;;;;;7.51;100.00;101444.44;5212591;28;20029;-78
2022/04/27 04:53:33;;;;;;;12.02;5.70;;;;;;;7.72;100.00;101442.44;5209717;28;20025;-78
2022/04/27 04:56:03;;;;;;;15.15;6.00;;;;;;;7.67;98.42;101444.25;5211941;28;20488;-78
2022/04/27 04:58:33;;;;;;;12.00;5.53;;;;;;;8.06;98.81;101454.22;5204858;28;20056;-78
2022/04/27 05:01:04;;;;;;;8.65;5.65;;;;;;;9.49;97.65;101453.06;5204088;28;20029;-78
2022/04/27 05:03:37;;;;;;;9.23;5.28;;;;;;;10.69;87.72;101453.31;5206159;28;20097;-77
2022/04/27 05:06:07;;;;;;;8.68;4.68;;;;;;;12.08;79.56;101453.28;5208968;28;20055;-78
2022/04/27 05:08:37;;;;;;;7.93;4.70;;;;;;;12.54;76.56;101458.06;5212806;28;20095;-78
2022/04/27 05:11:07;;;;;;;10.05;4.30;;;;;;;11.12;84.83;101460.97;5199174;28;20025;-78
2022/04/27 05:13:39;;;;;;;9.57;4.78;;;;;;;11.46;78.85;101467.13;5201645;28;20039;-78
2022/04/27 05:16:09;;;;;;;8.43;4.22;;;;;;;12.42;75.83;101468.91;5212522;28;20033;-78
2022/04/27 05:18:39;;;;;;;6.97;4.27;;;;;;;13.82;70.64;101456.53;5213099;28;20029;-78
2022/04/27 05:21:09;;;;;;;7.67;4.27;;;;;;;13.70;72.29;101456.06;5213660;28;20291;-78
2022/04/27 05:23:40;;;;;;;6.73;4.00;;;;;;;14.19;70.72;101462.22;5214220;28;20366;-79
2022/04/27 05:26:11;;;;;;;9.63;4.80;;;;;;;11.99;75.39;101469.25;5213760;28;20291;-79
2022/04/27 05:34:24;;;;;;;8.13;3.75;;;;;;;15.64;65.20;101468.75;5211052;28;20078;-79
2022/04/27 05:36:54;;;;;;;9.18;4.68;;;;;;;15.17;68.75;101470.66;5211788;28;20029;-79
2022/04/27 05:39:25;;;;;;;7.77;3.90;;;;;;;14.82;68.89;101479.09;5207853;28;20041;-79
2022/04/27 05:41:55;;;;;;;8.07;3.85;;;;;;;15.61;64.41;101480.28;5213997;28;20326;-79
2022/04/27 05:44:26;;;;;;;6.35;3.70;;;;;;;15.94;64.11;101476.22;5210551;28;20037;-79
2022/04/27 05:46:56;;;;;;;6.75;3.50;;;;;;;15.83;68.52;101478.44;5207053;28;20057;-79
2022/04/27 05:49:27;;;;;;;6.85;3.60;;;;;;;17.95;62.56;101467.44;5217363;28;20514;-79
2022/04/27 05:51:57;;;;;;;8.57;3.78;;;;;;;17.07;61.63;101470.09;5213414;28;20452;-79
2022/04/27 05:54:27;;;;;;;6.33;4.10;;;;;;;16.18;66.41;101482.22;5216795;28;20028;-79
2022/04/27 05:56:57;;;;;;;6.00;3.50;;;;;;;16.36;63.04;101478.78;5212779;28;20280;-79
2022/04/27 05:59:28;;;;;;;8.15;3.60;;;;;;;14.34;68.59;101484.47;5216155;28;20032;-79
2022/04/27 06:01:58;;;;;;;6.78;3.97;;;;;;;13.12;72.98;101493.91;5203212;28;20044;-78
2022/04/27 06:04:29;;;;;;;7.00;4.20;;;;;;;13.15;74.04;101478.03;5211782;28;20029;-79
2022/04/27 06:07:00;;;;;;;9.02;4.65;;;;;;;12.75;75.01;101484.53;5212299;28;20025;-78
2022/04/27 06:09:30;;;;;;;7.82;4.53;;;;;;;11.07;82.22;101493.41;5211588;28;20025;-78
2022/04/27 06:12:00;;;;;;;9.70;4.80;;;;;;;11.95;78.89;101482.50;5213152;28;20029;-78
2022/04/27 06:14:31;;;;;;;8.70;4.72;;;;;;;11.67;80.78;101492.81;5211830;28;20276;-78
2022/04/27 06:17:01;;;;;;;9.60;5.17;;;;;;;11.24;82.80;101499.97;5214796;28;20037;-79
2022/04/27 06:19:32;;;;;;;12.25;5.60;;;;;;;10.79;86.77;101496.66;5212210;28;20290;-79
2022/04/27 06:22:02;;;;;;;8.30;5.25;;;;;;;13.57;78.27;101487.13;5213079;28;20032;-79
2022/04/27 06:24:32;;;;;;;8.65;4.50;;;;;;;14.67;72.08;101485.84;5204399;28;20392;-79
2022/04/27 06:27:03;;;;;;;6.82;4.05;;;;;;;15.96;67.18;101486.69;5202736;28;20083;-79
2022/04/27 06:29:33;;;;;;;7.57;4.22;;;;;;;17.25;64.38;101485.06;5210890;28;20017;-79
2022/04/27 06:32:04;;;;;;;6.80;3.80;;;;;;;17.93;61.91;101479.88;5202126;28;20715;-80
2022/04/27 06:34:34;;;;;;;5.85;3.47;;;;;;;17.18;63.35;101488.06;5210738;28;20665;-79
2022/04/27 06:37:04;;;;;;;6.90;3.95;;;;;;;18.25;61.33;101487.00;5211651;28;20030;-80
2022/04/27 06:39:34;;;;;;;6.07;3.77;;;;;;;18.15;60.42;101482.28;5207447;28;20028;-80
2022/04/27 06:42:06;;;;;;;6.70;3.97;;;;;;;16.90;66.52;101488.53;5205530;28;20029;-79
2022/04/27 06:44:36;;;;;;;7.25;3.53;;;;;;;17.32;64.27;101490.91;5205059;28;20048;-79
2022/04/27 06:47:06;;;;;;;6.28;3.60;;;;;;;19.73;57.48;101491.91;5213006;28;20059;-80
2022/04/27 06:49:37;;;;;;;7.45;4.07;;;;;;;20.47;54.67;101488.25;5213152;28;20018;-80
2022/04/27 06:52:07;;;;;;;5.90;3.37;;;;;;;19.91;56.70;101490.81;5211717;28;20036;-79
2022/04/27 06:54:37;;;;;;;8.15;4.10;;;;;;;20.33;54.11;101493.56;5212347;28;20025;-79
2022/04/27 06:57:08;;;;;;;6.50;3.80;;;;;;;20.52;56.26;101494.16;5214181;28;20087;-80
2022/04/27 06:59:38;;;;;;;8.10;4.00;;;;;;;18.97;59.52;101505.09;5212286;28;20287;-80
2022/04/27 07:02:10;;;;;;;7.07;4.00;;;;;;;20.98;55.05;101498.31;5202962;28;20503;-80
2022/04/27 07:04:43;;;;;;;8.52;3.80;;;;;;;21.24;54.59;101492.19;5210368;28;20064;-80
2022/04/27 07:07:14;;;;;;;10.23;4.05;;;;;;;20.45;53.56;101503.44;5211854;28;20057;-80
2022/04/27 07:09:44;;;;;;;6.97;3.17;;;;;;;22.13;53.30;101497.69;5209543;28;20060;-80
2022/04/27 07:12:14;;;;;;;5.43;3.72;;;;;;;22.80;51.33;101506.22;5211469;28;20910;-80
2022/04/27 07:14:46;;;;;;;7.10;4.10;;;;;;;22.88;49.14;101496.72;5213114;28;20032;-80
2022/04/27 07:17:19;;;;;;;6.30;3.78;;;;;;;22.65;50.01;101506.47;5206409;28;20275;-81
2022/04/27 07:19:50;;;;;;;8.05;3.90;;;;;;;22.92;50.28;101511.56;5203842;28;20041;-81
2022/04/27 07:22:20;;;;;;;8.38;3.78;;;;;;;22.73;51.49;101512.97;5212040;28;20493;-81
2022/04/27 07:24:50;;;;;;;6.97;4.10;;;;;;;24.92;46.30;101507.72;5205423;28;20037;-80
2022/04/27 07:27:20;;;;;;;6.35;4.22;;;;;;;21.29;52.66;101519.34;5209310;28;20072;-78
2022/04/27 07:29:51;;;;;;;5.67;3.60;;;;;;;21.83;52.32;101521.94;5213265;28;20033;-77
2022/04/27 07:32:21;;;;;;;8.00;4.17;;;;;;;24.95;47.30;101502.13;5209838;28;20316;-78
2022/04/27 07:34:51;;;;;;;7.20;3.87;;;;;;;21.68;52.22;101522.06;5212248;28;20279;-78
2022/04/27 07:37:22;;;;;;;5.93;3.80;;;;;;;24.13;49.33;101512.25;5209847;28;20025;-77
2022/04/27 07:39:52;;;;;;;5.13;3.53;;;;;;;21.68;52.35;101533.59;5208481;28;20111;-77
2022/04/27 07:42:23;;;;;;;7.30;4.05;;;;;;;21.66;50.94;101534.63;5209703;28;20283;-77
2022/04/27 07:44:53;;;;;;;8.43;4.50;;;;;;;21.47;51.47;101531.44;5211351;28;20395;-77
2022/04/27 07:47:23;;;;;;;7.70;4.23;;;;;;;21.17;53.20;101536.94;5204884;28;20556;-77
2022/04/27 07:49:53;;;;;;;5.55;3.53;;;;;;;21.13;54.07;101539.88;5206331;28;20136;-76
2022/04/27 07:52:24;;;;;;;6.23;4.07;;;;;;;24.31;49.17;101528.66;5208431;28;20102;-76
2022/04/27 07:54:54;;;;;;;4.87;3.50;;;;;;;24.66;47.97;101527.66;5212111;28;20119;-77
2022/04/27 07:57:29;;;;;;;7.63;4.28;;;;;;;24.21;48.38;101525.84;5208589;28;20045;-76
2022/04/27 08:00:02;;;;;;;8.30;4.28;;;;;;;26.07;45.74;101526.66;5204815;28;20128;-76
2022/04/27 08:02:33;;;;;;;7.60;4.45;;;;;;;22.92;47.59;101538.22;5203135;28;20121;-76
2022/04/27 08:05:04;;;;;;;6.68;4.30;;;;;;;23.67;48.68;101530.00;5210382;28;20112;-76
2022/04/27 08:07:39;;;;;;;6.70;4.25;;;;;;;22.71;50.92;101539.72;5213263;28;20676;-76
2022/04/27 08:10:15;;;;;;;8.45;4.20;;;;;;;21.76;50.63;101546.41;5205393;28;20029;-76
2022/04/27 08:12:48;;;;;;;6.55;4.10;;;;;;;21.84;52.29;101546.72;5207038;28;20025;-76
2022/04/27 08:15:22;;;;;;;5.65;3.38;;;;;;;23.10;51.25;101541.38;5206603;28;20398;-76
2022/04/27 08:17:59;;;;;;;5.38;3.40;;;;;;;23.09;49.72;101535.19;5212606;28;20059;-77
2022/04/27 08:23:21;;;;;;;6.20;3.40;;;;;;;24.87;47.72;101539.34;5209895;28;20146;-76
2022/04/27 08:25:52;;;;;;;6.57;4.40;;;;;;;26.62;44.47;101532.56;5212499;28;20032;-76
2022/04/27 08:28:22;;;;;;;5.00;3.65;;;;;;;26.28;45.58;101538.22;5209369;28;20304;-76
2022/04/27 08:30:53;;;;;;;7.18;3.55;;;;;;;25.32;45.98;101541.03;5212102;28;20028;-76
2022/04/27 08:33:24;;;;;;;7.22;3.92;;;;;;;24.58;47.07;101545.28;5209023;28;20682;-76
2022/04/27 08:35:57;;;;;;;6.22;4.15;;;;;;;25.62;44.50;101544.72;5212655;28;20044;-76
2022/04/27 08:38:27;;;;;;;8.10;4.20;;;;;;;25.21;44.10;101554.44;5203807;28;20028;-76
2022/04/27 08:40:58;;;;;;;9.37;4.40;;;;;;;23.06;48.67;101562.06;5209331;28;20102;-76
2022/04/27 08:43:28;;;;;;;5.68;4.20;;;;;;;24.83;46.10;101552.09;5200092;28;20282;-76
2022/04/27 08:46:03;;;;;;;7.83;4.20;;;;;;;26.60;44.25;101550.63;5209576;28;20033;-76
2022/04/27 08:48:33;;;;;;;7.05;4.10;;;;;;;25.37;45.32;101552.22;5215058;28;20272;-76
2022/04/27 08:51:05;;;;;;;6.85;3.70;;;;;;;25.46;44.03;101564.88;5218301;28;20178;-76
2022/04/27 08:53:35;;;;;;;6.78;4.15;;;;;;;23.20;46.89;101567.31;5209813;28;20036;-76
2022/04/27 08:56:05;;;;;;;9.47;4.17;;;;;;;24.35;45.69;101560.38;5216504;28;20025;-76
2022/04/27 08:58:36;;;;;;;6.72;4.15;;;;;;;24.97;45.09;101559.88;5216821;28;20037;-76
2022/04/27 09:01:09;;;;;;;7.68;4.85;;;;;;;23.30;46.10;101564.81;5214175;28;20044;-76
2022/04/27 09:03:40;;;;;;;6.60;4.35;;;;;;;22.02;47.35;101569.47;5212527;28;20060;-76
2022/04/27 09:06:15;;;;;;;6.75;4.47;;;;;;;24.12;46.92;101565.78;5217510;28;20793;-76
2022/04/27 09:08:58;;;;;;;7.03;4.38;;;;;;;25.05;45.02;101569.97;5216114;28;20061;-76
2022/04/27 09:11:30;;;;;;;8.35;4.20;;;;;;;23.55;46.58;101572.78;5212253;28;20368;-76
2022/04/27 09:14:02;;;;;;;9.23;4.68;;;;;;;23.22;47.47;101572.56;5212333;28;20025;-75
2022/04/27 09:22:45;;;;;;;8.35;5.38;;;;;;;20.74;50.74;101582.22;5203290;28;19956;-75
2022/04/27 09:25:29;;;;;;;8.48;5.30;;;;;;;20.75;52.10;101586.59;5214294;28;20029;-75
2022/04/27 09:28:03;;;;;;;8.13;5.35;;;;;;;20.84;51.05;101586.03;5208867;28;20033;-78
2022/04/27 09:30:34;;;;;;;8.18;4.88;;;;;;;19.08;54.27;101587.53;5214169;28;20036;-77
2022/04/27 09:33:04;;;;;;;10.73;4.93;;;;;;;19.64;54.04;101577.31;5212692;28;20029;-77
2022/04/27 09:35:36;;;;;;;10.30;5.35;;;;;;;19.37;54.20;101578.88;5216557;28;20102;-77
2022/04/27 09:38:15;;;;;;;7.65;4.75;;;;;;;20.00;52.12;101585.84;5217362;28;20028;-77
2022/04/27 09:40:48;;;;;;;6.68;4.97;;;;;;;19.78;52.77;101580.03;5213397;28;20040;-77
2022/04/27 09:43:48;;;;;;;9.00;4.88;;;;;;;20.17;52.88;101574.25;5214648;28;20088;-77
2022/04/27 09:46:22;;;;;;;11.68;5.93;;;;;;;19.43;51.40;101575.88;5214964;28;20028;-77
2022/04/27 09:49:02;;;;;;;7.82;5.20;;;;;;;19.07;52.58;101575.22;5211560;28;20090;-77
2022/04/27 09:51:33;;;;;;;9.23;5.57;;;;;;;17.80;54.48;101578.44;5201387;28;20407;-77
2022/04/27 09:54:04;;;;;;;8.82;5.15;;;;;;;18.66;55.24;101572.25;5215578;28;20029;-77
2022/04/27 09:56:38;;;;;;;7.45;4.90;;;;;;;18.29;55.80;101575.06;5212570;28;20403;-77
2022/04/27 09:59:10;;;;;;;8.05;5.50;;;;;;;18.62;56.60;101575.97;5215564;28;20029;-77
2022/04/27 10:01:41;;;;;;;8.18;5.03;;;;;;;18.41;54.58;101574.44;5209255;28;20610;-77
2022/04/27 10:04:13;;;;;;;8.70;5.00;;;;;;;18.73;55.14;101572.69;5211961;28;20061;-77
2022/04/27 10:06:45;;;;;;;8.05;5.30;;;;;;;18.13;55.91;101572.31;5214551;28;20032;-77
2022/04/27 10:09:15;;;;;;;8.05;5.30;;;;;;;17.89;54.77;101577.97;5213054;28;20501;-77
2022/04/27 10:11:46;;;;;;;6.65;4.82;;;;;;;18.46;54.62;101573.28;5211952;28;20028;-77
2022/04/27 10:14:17;;;;;;;9.37;5.53;;;;;;;18.39;54.49;101584.25;5212740;28;20391;-77
2022/04/27 10:16:49;;;;;;;8.43;4.97;;;;;;;17.82;57.22;101579.22;5214211;28;20275;-77
2022/04/27 10:19:19;;;;;;;7.57;5.18;;;;;;;18.33;56.80;101574.00;5212214;28;20052;-77
2022/04/27 10:21:57;;;;;;;6.90;4.95;;;;;;;18.47;54.65;101574.09;5213509;28;20061;-77
2022/04/27 10:24:34;;;;;;;9.10;5.60;;;;;;;18.78;54.90;101570.63;5210402;28;20025;-77
2022/04/27 10:27:14;;;;;;;7.70;5.45;;;;;;;18.27;53.31;101563.66;5206449;28;20078;-77
2022/04/27 10:29:49;;;;;;;8.20;4.80;;;;;;;18.42;55.79;101568.22;5210500;28;20025;-77
2022/04/27 10:32:35;;;;;;;8.23;5.25;;;;;;;17.77;55.41;101568.88;5211771;28;20025;-77
2022/04/27 10:35:11;;;;;;;8.82;4.90;;;;;;;17.80;56.59;101565.22;5211130;28;20037;-77
2022/04/27 10:38:05;;;;;;;9.25;5.07;;;;;;;18.59;58.35;101565.53;5214808;28;20025;-77
2022/04/27 10:40:44;;;;;;;9.68;5.07;;;;;;;19.09;57.67;101557.44;5207880;28;20099;-77
2022/04/27 10:43:42;;;;;;;9.52;5.40;;;;;;;18.61;55.87;101564.53;5211990;28;20032;-77
2022/04/27 10:46:41;;;;;;;8.18;5.00;;;;;;;18.65;54.23;101567.88;5210570;28;20037;-77
2022/04/27 10:49:24;;;;;;;9.10;4.68;;;;;;;18.60;54.53;101570.78;5210770;28;20382;-77
2022/04/27 10:52:05;;;;;;;8.05;4.85;;;;;;;18.50;53.99;101572.16;5209029;28;20041;-77
2022/04/27 10:54:38;;;;;;;9.25;5.38;;;;;;;18.59;54.16;101566.41;5207615;28;20636;-77
2022/04/27 10:57:14;;;;;;;8.85;5.25;;;;;;;18.36;54.81;101566.72;5208513;28;20119;-77
2022/04/27 10:59:56;;;;;;;8.75;5.63;;;;;;;18.23;54.20;101557.69;5212860;28;20037;-77
2022/04/27 11:02:41;;;;;;;10.77;5.32;;;;;;;17.98;54.42;101569.59;5206014;28;20029;-77
2022/04/27 11:05:12;;;;;;;9.68;6.45;;;;;;;17.36;55.62;101566.50;5211898;28;20549;-77
2022/04/27 11:07:53;;;;;;;7.97;5.40;;;;;;;17.74;54.19;101563.72;5210404;28;20036;-77
2022/04/27 11:10:24;;;;;;;6.78;4.90;;;;;;;17.88;55.78;101565.69;5207916;28;20108;-77
2022/04/27 11:12:56;;;;;;;9.65;5.35;;;;;;;18.15;56.76;101566.97;5207799;28;20093;-77
2022/04/27 11:15:27;;;;;;;10.98;5.45;;;;;;;17.65;55.00;101560.69;5206154;28;20029;-77
2022/04/27 11:18:01;;;;;;;6.70;5.13;;;;;;;18.27;55.40;101561.03;5213786;28;20037;-77
2022/04/27 11:20:32;;;;;;;6.68;5.10;;;;;;;18.34;56.72;101565.13;5210377;28;20526;-77
2022/04/27 11:23:08;;;;;;;9.00;5.30;;;;;;;18.10;55.32;101559.25;5212455;28;20031;-77
2022/04/27 11:25:40;;;;;;;8.65;5.78;;;;;;;18.33;55.88;101563.41;5211626;28;20047;-77
2022/04/27 11:28:11;;;;;;;10.20;5.20;;;;;;;18.28;57.71;101565.41;5210339;28;20033;-77
2022/04/27 11:30:41;;;;;;;8.73;4.90;;;;;;;18.52;56.75;101564.16;5211554;28;20021;-77
2022/04/27 11:33:16;;;;;;;8.32;4.80;;;;;;;18.64;56.61;101559.06;5211352;28;20039;-77
2022/04/27 11:35:50;;;;;;;6.68;4.60;;;;;;;18.71;55.75;101555.16;5210485;28;20116;-77
2022/04/27 11:38:21;;;;;;;7.20;5.03;;;;;;;18.09;56.04;101554.03;5204952;28;20025;-77
2022/04/27 11:40:53;;;;;;;7.10;4.75;;;;;;;18.58;60.29;101550.59;5202124;28;20040;-77
2022/04/27 11:43:24;;;;;;;8.65;5.20;;;;;;;18.52;55.95;101548.28;5212813;28;20052;-77
2022/04/27 11:45:55;;;;;;;8.30;5.90;;;;;;;18.34;56.52;101547.44;5209378;28;20033;-77
2022/04/27 11:48:29;;;;;;;12.50;6.55;;;;;;;18.48;55.60;101541.44;5213312;28;20036;-78
2022/04/27 11:51:01;;;;;;;14.25;8.23;;;;;;;18.30;55.80;101552.94;5206389;28;20406;-77
2022/04/27 11:53:41;;;;;;;12.20;6.78;;;;;;;18.12;56.37;101552.09;5212737;28;20550;-77
2022/04/27 11:56:12;;;;;;;14.20;5.88;;;;;;;18.05;56.86;101552.47;5211728;28;20116;-77
2022/04/27 11:58:45;;;;;;;9.23;6.32;;;;;;;17.74;57.24;101544.34;5211324;28;20108;-77
2022/04/27 12:01:20;;;;;;;14.50;6.20;;;;;;;18.14;58.55;101546.72;5205760;28;20021;-77
2022/04/27 12:03:51;;;;;;;9.57;5.95;;;;;;;18.26;57.99;101536.34;5208251;28;20033;-77
2022/04/27 12:06:22;;;;;;;12.15;7.53;;;;;;;18.15;57.94;101537.84;5209916;28;20064;-77
2022/04/27 12:08:52;;;;;;;10.95;6.40;;;;;;;18.00;58.68;101533.34;5210371;28;20036;-77
2022/04/27 12:11:23;;;;;;;10.45;6.88;;;;;;;18.19;59.75;101528.81;5208479;28;20021;-77